Time;durP1;ratioP1;P1;durP2;ratioP2;P2;SDS_P1;SDS_P2;PMS_P1;PMS_P2;Temp;Humidity;BMP_temperature;BMP_pressure;BME280_temperature;BME280_humidity;BME280_pressure;Samples;Min_cycle;Max_cycle;Signal;HPM_P1;HPM_P2
2022/05/13 00:02:11;;;;;;;9.15;8.02;;;17.80;84.30;;;16.83;95.02;96327.28;4858012;28;20561;-67
2022/05/13 00:04:38;;;;;;;10.18;8.13;;;17.90;84.30;;;16.87;95.17;96325.00;4857443;28;20763;-67
2022/05/13 00:07:05;;;;;;;10.70;8.48;;;18.00;84.10;;;16.91;94.74;96328.81;4893326;28;20815;-67
2022/05/13 00:12:16;;;;;;;10.52;8.57;;;18.00;83.70;;;16.90;94.95;96329.03;4875822;28;20208;-67
2022/05/13 00:14:42;;;;;;;10.30;8.43;;;17.90;84.00;;;16.90;94.59;96321.06;4840289;28;20371;-68
2022/05/13 00:17:08;;;;;;;10.52;7.82;;;17.90;83.90;;;16.93;94.15;96332.06;4879613;28;20389;-67
2022/05/13 00:19:34;;;;;;;9.52;7.90;;;17.90;83.50;;;16.91;94.65;96318.19;4871726;28;20323;-68
2022/05/13 00:22:00;;;;;;;10.10;8.48;;;17.90;83.70;;;16.89;94.44;96320.25;4880857;28;20302;-68
2022/05/13 00:24:27;;;;;;;8.13;7.32;;;17.80;83.70;;;16.89;94.50;96319.47;4847638;28;20684;-67
2022/05/13 00:26:53;;;;;;;8.95;7.90;;;17.80;83.70;;;16.90;94.95;96318.41;4857899;28;20578;-67
2022/05/13 00:29:19;;;;;;;9.98;8.55;;;17.90;83.40;;;16.91;94.63;96318.19;4847646;28;20258;-67
2022/05/13 00:31:45;;;;;;;10.50;8.45;;;17.90;83.80;;;16.94;94.50;96319.59;4874751;28;20566;-67
2022/05/13 00:34:14;;;;;;;8.45;7.57;;;18.00;83.40;;;16.97;94.35;96317.28;4839238;28;20326;-67
2022/05/13 00:36:40;;;;;;;10.82;8.38;;;18.00;83.30;;;16.99;94.18;96320.56;4872545;28;20301;-67
2022/05/13 00:39:07;;;;;;;13.07;8.63;;;18.10;83.30;;;17.02;94.02;96320.13;4868753;28;20377;-67
2022/05/13 00:41:34;;;;;;;10.45;8.27;;;18.10;83.10;;;17.00;94.11;96321.38;4850980;28;20435;-67
2022/05/13 00:44:00;;;;;;;11.50;8.98;;;18.00;83.10;;;16.97;94.48;96317.28;4885632;28;20423;-67
2022/05/13 00:46:28;;;;;;;10.23;8.25;;;18.00;83.40;;;16.98;94.00;96307.50;4874954;28;20619;-67
2022/05/13 00:48:54;;;;;;;11.93;8.10;;;18.10;83.20;;;16.99;94.18;96303.81;4885560;28;20492;-69
2022/05/13 00:51:31;;;;;;;10.23;8.40;;;18.10;83.10;;;16.97;94.54;96296.03;4840332;28;20254;-67
2022/05/13 00:53:57;;;;;;;10.75;8.02;;;18.00;83.10;;;16.94;94.19;96296.47;4867112;28;20497;-67
2022/05/13 00:56:26;;;;;;;10.23;8.63;;;17.90;83.20;;;16.90;94.26;96295.31;4849141;28;20697;-67
2022/05/13 00:58:56;;;;;;;10.40;8.45;;;17.90;83.30;;;16.88;94.36;96296.56;4850636;28;20327;-67
2022/05/13 01:01:22;;;;;;;10.35;8.35;;;17.80;83.30;;;16.84;94.37;96297.03;4880102;28;20312;-67
2022/05/13 01:03:49;;;;;;;10.75;8.60;;;17.80;83.50;;;16.84;94.14;96298.88;4849529;28;20491;-67
2022/05/13 01:06:18;;;;;;;9.70;8.18;;;17.80;83.40;;;16.84;94.77;96301.53;4851782;28;20131;-67
2022/05/13 01:08:47;;;;;;;10.02;7.75;;;17.90;83.60;;;16.82;94.68;96308.91;4840485;28;20364;-67
2022/05/13 01:11:17;;;;;;;10.63;8.43;;;17.80;83.50;;;16.81;95.05;96307.28;4855496;28;20297;-67
2022/05/13 01:13:58;;;;;;;12.13;8.90;;;17.70;83.70;;;16.80;95.37;96300.34;4862240;28;20482;-67
2022/05/13 01:16:23;;;;;;;;;;;17.80;83.70;;;16.74;96.37;96309.19;4845770;28;20584;-67
2022/05/13 01:18:49;;;;;;;11.05;8.57;;;17.70;83.70;;;16.72;93.96;96306.75;4879330;28;20388;-67
2022/05/13 01:21:21;;;;;;;12.55;8.68;;;17.80;83.60;;;16.72;95.04;96303.28;4888003;28;20360;-67
2022/05/13 01:23:47;;;;;;;9.10;7.95;;;17.70;83.60;;;16.75;95.25;96313.50;4875974;28;20381;-67
2022/05/13 01:26:26;;;;;;;9.23;8.02;;;17.80;83.60;;;16.81;95.66;96301.97;4881050;28;20312;-67
2022/05/13 01:28:55;;;;;;;11.02;7.90;;;17.90;83.50;;;16.84;95.38;96312.16;4887164;28;20240;-67
2022/05/13 01:31:29;;;;;;;10.32;8.38;;;18.00;83.40;;;16.87;95.52;96303.75;4869019;28;20546;-67
2022/05/13 01:33:56;;;;;;;10.77;8.30;;;18.10;83.30;;;16.91;94.77;96307.56;4879592;28;20373;-67
2022/05/13 01:36:22;;;;;;;13.60;9.73;;;18.10;83.10;;;16.93;94.76;96305.50;4836043;28;20490;-68
2022/05/13 01:38:48;;;;;;;12.07;8.43;;;18.10;83.20;;;16.95;94.79;96307.94;4843647;28;20497;-67
2022/05/13 01:41:14;;;;;;;9.57;8.40;;;18.10;83.30;;;16.97;95.18;96311.97;4877689;28;20361;-67
2022/05/13 01:43:41;;;;;;;9.40;8.10;;;18.10;83.30;;;16.99;94.91;96304.63;4872509;28;20460;-67
2022/05/13 01:46:08;;;;;;;11.43;8.55;;;18.10;83.30;;;16.98;94.63;96296.88;4851106;28;20388;-67
2022/05/13 01:48:34;;;;;;;12.43;8.80;;;18.10;83.10;;;17.02;94.59;96306.81;4869071;28;20631;-68
2022/05/13 01:51:00;;;;;;;10.68;7.90;;;18.10;82.80;;;17.03;94.59;96305.78;4845791;28;20795;-67
2022/05/13 01:53:26;;;;;;;9.93;8.43;;;18.10;82.80;;;17.01;94.35;96307.88;4815078;28;20613;-67
2022/05/13 01:55:52;;;;;;;10.27;8.48;;;18.10;83.00;;;16.98;94.46;96310.16;4836589;28;20397;-67
2022/05/13 01:58:20;;;;;;;11.20;8.40;;;18.10;83.10;;;16.99;94.35;96309.13;4860913;28;20358;-67
2022/05/13 02:00:48;;;;;;;9.13;8.07;;;18.00;83.10;;;16.97;94.27;96306.66;4863968;28;20330;-67
2022/05/13 02:05:59;;;;;;;9.23;8.32;;;17.90;83.20;;;16.91;93.76;96307.56;4853284;28;20524;-67
2022/05/13 02:08:25;;;;;;;9.98;8.98;;;17.90;83.30;;;16.91;93.86;96301.44;4851366;28;20436;-67
2022/05/13 02:10:51;;;;;;;11.40;8.65;;;17.90;83.30;;;16.91;94.44;96304.91;4899591;28;20416;-67
2022/05/13 02:13:17;;;;;;;9.90;8.35;;;18.00;83.40;;;16.91;94.80;96307.56;4853398;28;20356;-67
2022/05/13 02:15:43;;;;;;;10.85;8.50;;;18.00;83.20;;;16.93;94.49;96304.69;4868156;28;20329;-67
2022/05/13 02:18:09;;;;;;;9.88;8.77;;;18.10;83.10;;;16.93;94.88;96316.13;4858090;28;20900;-67
2022/05/13 02:20:36;;;;;;;10.90;8.73;;;18.10;82.90;;;16.92;94.37;96305.72;4869500;28;20120;-67
2022/05/13 02:23:02;;;;;;;10.25;9.15;;;18.00;83.00;;;16.91;94.57;96307.56;4858762;28;20038;-67
2022/05/13 02:25:29;;;;;;;12.13;8.65;;;18.00;82.90;;;16.91;94.31;96307.56;4849741;28;20624;-68
2022/05/13 02:27:57;;;;;;;10.05;8.93;;;18.00;83.00;;;16.91;94.53;96302.25;4867724;28;20208;-67
2022/05/13 02:30:25;;;;;;;11.88;8.82;;;18.10;82.90;;;16.89;94.41;96304.31;4862130;28;20470;-67
2022/05/13 02:32:51;;;;;;;11.50;9.35;;;18.00;82.90;;;16.85;94.67;96297.84;4864794;28;20397;-67
2022/05/13 02:35:17;;;;;;;10.82;9.73;;;17.90;83.20;;;16.85;94.62;96292.53;4861404;28;20485;-68
2022/05/13 02:37:43;;;;;;;12.20;9.50;;;17.90;83.20;;;16.86;94.84;96291.50;4853360;28;20381;-67
2022/05/13 02:40:12;;;;;;;11.05;9.95;;;17.90;83.00;;;16.83;94.47;96294.59;4867476;28;20312;-67
2022/05/13 02:42:38;;;;;;;11.23;9.93;;;17.80;83.20;;;16.75;95.11;96292.25;4863014;28;20502;-67
2022/05/13 02:45:09;;;;;;;14.93;9.52;;;17.70;83.40;;;16.72;95.30;96290.81;4883940;28;20454;-67
2022/05/13 02:47:38;;;;;;;11.23;9.20;;;17.80;83.50;;;16.70;95.11;96286.78;4844178;28;20835;-68
2022/05/13 02:50:17;;;;;;;14.10;10.45;;;17.70;83.40;;;16.68;95.38;96283.53;4840043;28;20316;-67
2022/05/13 02:52:44;;;;;;;13.02;10.13;;;17.70;83.70;;;16.62;95.13;96279.09;4885136;28;20368;-66
2022/05/13 02:55:10;;;;;;;11.88;9.50;;;17.60;83.70;;;16.56;95.80;96282.63;4867598;28;20569;-67
2022/05/13 02:57:36;;;;;;;11.18;10.07;;;17.60;84.10;;;16.52;96.01;96283.09;4838402;28;20240;-67
2022/05/13 03:00:06;;;;;;;11.18;10.00;;;17.50;84.20;;;16.51;96.42;96281.44;4852647;28;20220;-68
2022/05/13 03:02:33;;;;;;;13.45;10.40;;;17.60;84.10;;;16.45;96.11;96281.50;4851147;28;20704;-68
2022/05/13 03:04:59;;;;;;;15.93;10.45;;;17.50;84.40;;;16.40;96.26;96284.84;4868674;28;20546;-68
2022/05/13 03:07:25;;;;;;;11.57;10.05;;;17.40;84.50;;;16.37;96.54;96290.59;4842277;28;20388;-68
2022/05/13 03:09:51;;;;;;;15.07;10.18;;;17.40;84.70;;;16.32;96.90;96285.13;4885207;28;20640;-68
2022/05/13 03:12:17;;;;;;;11.10;9.82;;;17.30;84.70;;;16.28;97.25;96291.91;4880471;28;20332;-68
2022/05/13 03:14:43;;;;;;;12.23;9.70;;;17.30;84.80;;;16.21;96.46;96294.63;4824096;28;20288;-68
2022/05/13 03:17:09;;;;;;;11.05;9.15;;;17.10;84.70;;;16.18;96.78;96284.44;4852206;28;20427;-68
2022/05/13 03:19:36;;;;;;;15.15;11.85;;;17.10;84.70;;;16.12;96.58;96277.38;4864398;28;20515;-68
2022/05/13 03:22:04;;;;;;;11.13;9.25;;;17.20;84.50;;;16.18;96.39;96286.28;4851776;28;20488;-67
2022/05/13 03:24:30;;;;;;;10.63;8.63;;;17.20;84.00;;;16.14;95.92;96275.31;4883073;28;20269;-68
2022/05/13 03:26:56;;;;;;;9.57;8.60;;;17.20;84.10;;;16.15;96.29;96278.78;4877794;28;20404;-68
2022/05/13 03:29:22;;;;;;;9.77;8.80;;;17.10;84.30;;;16.14;96.47;96280.63;4849071;28;20365;-68
2022/05/13 03:31:48;;;;;;;10.60;9.45;;;17.10;84.20;;;16.12;97.07;96279.22;4843517;28;20556;-69
2022/05/13 03:34:14;;;;;;;11.75;9.80;;;17.10;84.50;;;16.10;96.56;96274.13;4873838;28;20034;-69
2022/05/13 03:36:40;;;;;;;11.50;9.25;;;17.10;84.60;;;16.10;96.40;96278.63;4850908;28;20489;-70
2022/05/13 03:39:07;;;;;;;12.77;10.65;;;17.10;84.20;;;16.12;96.12;96288.00;4867414;28;20357;-69
2022/05/13 03:41:33;;;;;;;16.95;10.52;;;17.10;84.10;;;16.15;96.38;96286.72;4879979;28;20433;-68
2022/05/13 03:43:59;;;;;;;12.23;8.80;;;17.30;84.00;;;16.19;96.10;96282.59;4872155;28;20046;-68
2022/05/13 03:46:25;;;;;;;10.38;8.60;;;17.40;83.60;;;16.21;95.65;96281.34;4861016;28;20346;-68
2022/05/13 03:48:51;;;;;;;10.13;8.57;;;17.40;83.30;;;16.24;95.79;96285.41;4851844;28;20365;-68
2022/05/13 03:51:17;;;;;;;8.98;7.85;;;17.50;83.30;;;16.27;96.19;96279.66;4879773;28;20360;-68
2022/05/13 03:53:43;;;;;;;11.85;8.88;;;17.40;83.20;;;16.30;95.54;96276.59;4840512;28;20445;-69
2022/05/13 03:56:10;;;;;;;11.02;9.30;;;17.60;83.10;;;16.33;95.87;96270.03;4841077;28;20357;-68
2022/05/13 03:58:36;;;;;;;11.00;8.25;;;17.60;82.80;;;16.33;95.90;96267.38;4868550;28;20331;-68
2022/05/13 04:01:02;;;;;;;9.75;8.13;;;17.50;82.60;;;16.34;95.20;96271.63;4878713;28;20436;-69
2022/05/13 04:03:28;;;;;;;11.38;8.70;;;17.50;82.50;;;16.32;95.32;96266.56;4847828;28;20785;-68
2022/05/13 04:08:58;;;;;;;8.52;7.43;;;17.50;82.50;;;16.31;94.76;96267.59;4865960;28;20065;-68
2022/05/13 04:11:33;;;;;;;11.25;8.73;;;17.50;82.50;;;16.28;95.31;96277.81;4865176;28;20376;-69
2022/05/13 04:16:46;;;;;;;12.02;8.77;;;17.30;83.10;;;16.25;95.08;96276.41;4907470;28;20210;-68
2022/05/13 04:19:12;;;;;;;10.80;8.05;;;17.40;83.10;;;16.24;94.86;96283.56;4876939;28;20496;-69
2022/05/13 04:21:39;;;;;;;9.45;7.30;;;17.40;83.00;;;16.24;95.29;96291.53;4865117;28;20378;-69
2022/05/13 04:24:09;;;;;;;8.43;7.50;;;17.40;83.00;;;16.26;95.45;96288.66;4853780;28;20378;-69
2022/05/13 04:26:35;;;;;;;9.88;8.20;;;17.40;83.30;;;16.28;95.59;96294.53;4870424;28;20487;-68
2022/05/13 04:29:01;;;;;;;11.35;8.27;;;17.50;83.20;;;16.30;95.55;96303.13;4883776;28;20585;-68
2022/05/13 04:31:30;;;;;;;8.95;7.32;;;17.50;83.30;;;16.33;96.26;96312.50;4844776;28;20405;-69
2022/05/13 04:33:56;;;;;;;11.48;8.55;;;17.50;83.40;;;16.35;96.39;96324.50;4855382;28;20588;-69
2022/05/13 04:36:23;;;;;;;10.13;7.95;;;17.60;83.40;;;16.37;96.38;96327.75;4879662;28;20361;-69
2022/05/13 04:38:50;;;;;;;9.60;7.82;;;17.60;83.20;;;16.40;96.29;96337.94;4852815;28;20724;-69
2022/05/13 04:44:01;;;;;;;17.25;13.35;;;17.60;83.20;;;16.40;96.06;96353.88;4862879;28;20760;-69
2022/05/13 04:46:27;;;;;;;12.40;10.30;;;17.60;83.50;;;16.43;96.34;96356.06;4885661;28;20320;-69
2022/05/13 04:48:53;;;;;;;11.98;8.65;;;17.60;83.30;;;16.43;95.74;96356.06;4891849;28;20456;-69
2022/05/13 04:51:20;;;;;;;9.98;8.13;;;17.60;83.00;;;16.43;95.88;96358.72;4868984;28;20373;-69
2022/05/13 04:53:48;;;;;;;12.48;8.10;;;17.60;83.10;;;16.41;96.21;96363.44;4878244;28;20650;-69
2022/05/13 04:56:14;;;;;;;10.48;8.70;;;17.50;83.00;;;16.38;95.87;96345.31;4860399;28;20459;-69
2022/05/13 04:58:42;;;;;;;12.05;7.55;;;17.40;83.20;;;16.34;95.82;96338.00;4865331;28;20378;-69
2022/05/13 05:01:09;;;;;;;7.90;5.90;;;17.40;83.20;;;16.32;95.03;96340.88;4864008;28;20458;-69
2022/05/13 05:03:35;;;;;;;8.25;6.38;;;17.40;82.80;;;16.30;95.15;96348.25;4868138;28;20390;-69
2022/05/13 05:06:02;;;;;;;9.50;6.75;;;17.40;82.60;;;16.31;94.40;96341.09;4868937;28;20356;-69
2022/05/13 05:08:29;;;;;;;10.15;6.40;;;17.50;82.40;;;16.33;94.62;96334.53;4885860;28;20483;-69
2022/05/13 05:10:55;;;;;;;9.07;6.97;;;17.60;82.30;;;16.35;94.78;96339.63;4864349;28;20408;-69
2022/05/13 05:13:33;;;;;;;10.93;6.43;;;17.60;82.00;;;16.35;94.60;96334.31;4883149;28;20705;-69
2022/05/13 05:15:59;;;;;;;9.35;6.70;;;17.60;82.00;;;16.34;94.27;96343.31;4852492;28;20464;-69
2022/05/13 05:18:25;;;;;;;9.00;5.80;;;17.60;82.40;;;16.36;94.94;96339.41;4870899;28;20458;-70
2022/05/13 05:20:51;;;;;;;14.90;6.18;;;17.60;82.30;;;16.39;94.15;96341.63;4838465;28;20212;-69
2022/05/13 05:23:30;;;;;;;7.43;6.70;;;17.60;82.10;;;16.39;94.93;96344.28;4864730;28;20350;-69
2022/05/13 05:25:56;;;;;;;7.35;5.80;;;17.60;82.20;;;16.39;94.43;96341.63;4882490;28;20496;-69
2022/05/13 05:28:23;;;;;;;7.70;5.75;;;17.60;82.00;;;16.41;94.71;96347.53;4856231;28;20038;-69
2022/05/13 05:30:51;;;;;;;8.05;6.60;;;17.60;82.00;;;16.43;94.77;96352.63;4857150;28;20379;-69
2022/05/13 05:33:17;;;;;;;6.45;5.78;;;17.60;81.90;;;16.40;94.19;96342.44;4858750;28;20392;-67
2022/05/13 05:35:43;;;;;;;6.13;5.53;;;17.60;82.00;;;16.37;94.33;96343.69;4849442;28;20782;-67
2022/05/13 05:38:09;;;;;;;7.95;5.78;;;17.50;82.30;;;16.35;94.41;96347.59;4866506;28;20389;-70
2022/05/13 05:40:37;;;;;;;7.25;5.18;;;17.50;82.10;;;16.33;93.78;96349.66;4852831;28;20584;-70
2022/05/13 05:43:05;;;;;;;5.45;4.78;;;17.50;82.20;;;16.33;93.92;96353.13;4838268;28;20354;-70
2022/05/13 05:45:31;;;;;;;7.13;4.55;;;17.40;82.30;;;16.29;93.17;96346.59;4868637;28;20370;-71
2022/05/13 05:47:58;;;;;;;6.28;4.28;;;17.40;81.90;;;16.25;94.04;96350.72;4904919;28;20363;-69
2022/05/13 05:50:24;;;;;;;5.75;4.07;;;17.40;82.20;;;16.26;94.89;96354.19;4878938;28;20431;-69
2022/05/13 05:52:50;;;;;;;5.45;4.40;;;17.40;82.20;;;16.23;93.66;96347.47;4868823;28;20493;-68
2022/05/13 05:58:10;;;;;;;6.10;4.38;;;17.50;81.50;;;16.28;94.13;96350.28;4845840;28;20320;-70
2022/05/13 06:00:38;;;;;;;6.40;4.47;;;17.60;81.80;;;16.29;93.32;96354.56;4850670;28;20360;-70
2022/05/13 06:03:04;;;;;;;6.72;4.43;;;17.50;81.50;;;16.31;93.72;96355.19;4837302;28;20540;-71
2022/05/13 06:05:30;;;;;;;6.20;4.07;;;17.60;81.50;;;16.34;93.91;96354.75;4836500;28;20495;-70
2022/05/13 06:08:00;;;;;;;5.75;4.60;;;17.60;81.50;;;16.36;93.61;96351.88;4838572;28;20439;-70
2022/05/13 06:10:26;;;;;;;6.97;4.97;;;17.60;81.80;;;16.39;94.13;96352.25;4844533;28;20350;-71
2022/05/13 06:12:53;;;;;;;6.30;4.63;;;17.70;81.30;;;16.41;93.71;96354.69;4855173;28;20320;-70
2022/05/13 06:15:19;;;;;;;5.50;4.90;;;17.80;81.50;;;16.48;95.06;96355.41;4885070;28;20362;-70
2022/05/13 06:17:50;;;;;;;6.20;5.07;;;18.00;81.40;;;16.56;93.90;96351.69;4849970;28;20709;-71
2022/05/13 06:20:17;;;;;;;7.60;5.22;;;18.10;80.70;;;16.51;93.90;96347.81;4868913;28;20485;-70
2022/05/13 06:22:44;;;;;;;7.78;5.20;;;17.90;80.90;;;16.49;93.72;96336.59;4884869;28;20380;-70
2022/05/13 06:25:11;;;;;;;8.07;5.18;;;17.70;81.10;;;16.43;93.77;96337.50;4858099;28;20820;-69
2022/05/13 06:27:38;;;;;;;7.63;5.63;;;17.70;81.40;;;16.44;94.59;96341.78;4869652;28;20543;-70
2022/05/13 06:30:10;;;;;;;7.32;5.22;;;17.70;82.00;;;16.39;93.83;96331.00;4838683;28;20557;-70
2022/05/13 06:32:35;;;;;;;6.82;5.38;;;17.60;81.90;;;16.30;93.82;96332.31;4850680;28;20793;-70
2022/05/13 06:35:02;;;;;;;6.13;4.80;;;17.40;82.40;;;16.28;94.38;96344.97;4860616;28;20263;-69
2022/05/13 06:37:28;;;;;;;13.20;5.53;;;17.50;82.40;;;16.29;94.99;96340.47;4856224;28;20355;-70
2022/05/13 06:39:55;;;;;;;6.32;5.47;;;17.60;82.60;;;16.30;95.56;96342.94;4854814;28;20747;-70
2022/05/13 06:42:24;;;;;;;6.30;5.50;;;17.70;82.10;;;16.35;95.95;96345.75;4861201;28;20245;-70
2022/05/13 06:44:53;;;;;;;7.40;6.30;;;17.90;82.10;;;16.46;96.27;96352.97;4857528;28;20569;-70
2022/05/13 06:47:19;;;;;;;7.50;5.68;;;18.10;81.80;;;16.57;96.24;96348.81;4853850;28;20775;-69
2022/05/13 06:49:46;;;;;;;6.13;4.88;;;18.20;80.80;;;16.71;95.15;96354.81;4845770;28;20332;-70
2022/05/13 06:52:13;;;;;;;6.22;5.10;;;18.60;79.60;;;16.93;95.02;96348.00;4867637;28;20319;-69
2022/05/13 06:54:42;;;;;;;10.65;5.68;;;19.10;78.90;;;17.15;95.26;96349.16;4869887;28;20339;-67
2022/05/13 06:57:09;;;;;;;6.97;4.82;;;19.30;78.50;;;17.30;94.86;96351.44;4855457;28;20440;-68
2022/05/13 06:59:35;;;;;;;9.20;5.38;;;19.20;78.40;;;17.37;93.74;96348.69;4854792;28;20363;-67
2022/05/13 07:02:01;;;;;;;5.88;4.88;;;19.10;78.10;;;17.40;92.18;96353.53;4871063;28;20384;-67
2022/05/13 07:04:27;;;;;;;8.73;6.68;;;18.90;78.40;;;17.45;92.90;96351.84;4902700;28;20216;-68
2022/05/13 07:06:53;;;;;;;7.88;6.35;;;19.10;78.80;;;17.51;92.36;96357.31;4852909;28;20376;-67
2022/05/13 07:09:19;;;;;;;7.35;5.13;;;19.10;78.70;;;17.47;91.40;96356.94;4868015;28;20597;-68
2022/05/13 07:11:45;;;;;;;5.25;4.40;;;18.80;77.90;;;17.42;91.04;96356.78;4882768;28;20386;-67
2022/05/13 07:14:13;;;;;;;6.82;4.43;;;18.70;78.70;;;17.39;91.16;96351.94;4869533;28;20328;-67
2022/05/13 07:16:39;;;;;;;7.13;6.28;;;18.70;78.70;;;17.40;90.87;96358.88;4856975;28;20304;-67
2022/05/13 07:19:06;;;;;;;12.02;10.10;;;18.80;78.70;;;17.45;91.67;96356.38;4853528;28;20396;-69
2022/05/13 07:21:32;;;;;;;7.85;6.30;;;19.00;79.20;;;17.52;91.07;96349.09;4867862;28;20333;-68
2022/05/13 07:23:58;;;;;;;4.82;4.35;;;19.10;78.50;;;17.55;90.74;96355.81;4887383;28;20378;-67
2022/05/13 07:26:24;;;;;;;7.10;5.00;;;19.00;78.10;;;17.54;91.45;96355.00;4881930;28;20379;-68
2022/05/13 07:28:50;;;;;;;8.15;5.75;;;19.00;79.10;;;17.58;91.18;96358.81;4835396;28;20340;-68
2022/05/13 07:31:16;;;;;;;8.32;4.90;;;19.10;78.30;;;17.64;90.71;96360.56;4872015;28;20042;-63
2022/05/13 07:33:42;;;;;;;8.85;4.78;;;19.10;77.90;;;17.69;91.13;96352.78;4920600;28;20495;-65
2022/05/13 07:36:08;;;;;;;6.97;4.80;;;19.30;77.60;;;17.84;90.45;96362.16;4856205;28;20200;-69
2022/05/13 07:38:34;;;;;;;6.72;4.95;;;19.60;77.80;;;17.92;90.82;96353.88;4834228;28;20558;-69
2022/05/13 07:41:16;;;;;;;6.60;4.50;;;19.60;76.50;;;17.99;89.53;96359.88;4859938;28;20616;-69
2022/05/13 07:43:47;;;;;;;5.10;4.60;;;19.70;76.60;;;18.07;88.48;96364.88;4856780;28;20480;-69
2022/05/13 07:46:13;;;;;;;5.15;4.60;;;19.80;75.30;;;18.18;88.02;96363.28;4845601;28;20460;-70
2022/05/13 07:48:40;;;;;;;5.78;4.82;;;20.10;75.10;;;18.30;88.46;96359.56;4858700;28;20577;-68
2022/05/13 07:51:07;;;;;;;6.47;4.50;;;20.30;74.50;;;18.45;88.96;96350.31;4833518;28;20481;-68
2022/05/13 07:53:34;;;;;;;9.15;4.78;;;20.60;74.30;;;18.63;88.27;96352.88;4871233;28;20678;-69
2022/05/13 07:56:01;;;;;;;5.25;4.18;;;20.90;74.20;;;18.82;87.39;96351.72;4875557;28;20451;-69
2022/05/13 07:58:28;;;;;;;5.75;4.20;;;21.30;71.80;;;19.09;87.28;96337.84;4872698;28;20879;-69
2022/05/13 08:00:54;;;;;;;7.47;4.00;;;21.70;70.70;;;19.43;87.28;96347.56;4861515;28;20341;-69
2022/05/13 08:03:30;;;;;;;6.72;4.70;;;22.40;69.30;;;19.72;86.46;96350.28;4837930;28;20473;-71
2022/05/13 08:06:03;;;;;;;5.88;4.03;;;22.50;68.90;;;19.97;85.11;96340.03;4886250;28;20281;-69
2022/05/13 08:08:42;;;;;;;6.97;4.18;;;22.50;69.40;;;20.18;82.13;96341.16;4878339;28;20443;-69
2022/05/13 08:11:11;;;;;;;5.00;4.05;;;22.60;67.40;;;20.33;81.30;96345.91;4841281;28;20349;-66
2022/05/13 08:13:38;;;;;;;6.70;4.05;;;22.70;66.00;;;20.52;80.71;96341.97;4884250;28;20514;-71
2022/05/13 08:16:06;;;;;;;5.15;3.60;;;22.80;66.00;;;20.63;80.64;96341.06;4838967;28;20541;-69
2022/05/13 08:18:32;;;;;;;4.25;3.63;;;22.80;65.80;;;20.77;79.30;96341.50;4873101;28;20309;-68
2022/05/13 08:20:58;;;;;;;6.32;3.80;;;23.00;65.20;;;20.91;78.67;96348.09;4842529;28;20307;-67
2022/05/13 08:23:24;;;;;;;5.55;3.97;;;23.00;65.40;;;21.02;78.40;96355.19;4868704;28;20357;-68
2022/05/13 08:25:50;;;;;;;6.30;4.10;;;23.00;65.70;;;21.09;78.36;96350.47;4843844;28;20366;-68
2022/05/13 08:28:18;;;;;;;6.53;3.72;;;23.00;66.10;;;21.08;77.67;96356.09;4853602;28;20401;-67
2022/05/13 08:30:44;;;;;;;3.65;3.35;;;22.90;65.50;;;21.05;76.58;96353.91;4872660;28;20233;-68
2022/05/13 08:33:10;;;;;;;7.45;3.97;;;22.70;65.20;;;21.00;76.09;96348.47;4870601;28;20340;-68
2022/05/13 08:35:48;;;;;;;5.07;4.00;;;22.60;64.80;;;21.00;74.46;96349.28;4865419;28;20371;-68
2022/05/13 08:38:15;;;;;;;6.10;4.28;;;22.60;65.80;;;21.01;75.68;96353.56;4848021;28;20611;-68
2022/05/13 08:40:45;;;;;;;5.93;4.05;;;22.80;64.70;;;20.97;75.30;96351.66;4859666;28;20370;-68
2022/05/13 08:43:16;;;;;;;5.75;3.88;;;22.60;65.20;;;20.90;74.68;96351.84;4909310;28;20366;-68
2022/05/13 08:45:59;;;;;;;5.30;4.32;;;22.40;66.30;;;20.78;72.88;96345.78;4855419;28;20360;-71
2022/05/13 08:48:33;;;;;;;6.20;4.72;;;22.30;65.40;;;20.66;74.28;96351.25;4848333;28;20268;-70
2022/05/13 08:51:14;;;;;;;7.85;4.18;;;22.10;66.20;;;20.55;75.13;96346.00;4857496;28;20496;-72
2022/05/13 08:54:14;;;;;;;4.38;3.97;;;21.90;67.40;;;20.39;75.46;96340.41;4850637;28;20570;-66
2022/05/13 08:56:40;;;;;;;5.82;3.92;;;21.70;68.20;;;20.26;76.36;96347.94;4853914;28;20404;-70
2022/05/13 08:59:15;;;;;;;5.70;4.13;;;21.60;67.60;;;20.18;75.73;96339.31;4845483;28;20376;-70
2022/05/13 09:01:54;;;;;;;8.27;4.82;;;21.50;69.00;;;20.10;76.05;96350.38;4884152;28;20409;-68
2022/05/13 09:05:05;;;;;;;7.20;4.80;;;21.50;69.60;;;20.02;77.22;96345.44;4870103;28;20252;-68
2022/05/13 09:07:31;;;;;;;7.18;5.18;;;21.40;70.20;;;19.90;76.51;96342.03;4870195;28;20300;-69
2022/05/13 09:10:03;;;;;;;11.55;9.43;;;21.10;69.80;;;19.80;77.36;96357.88;4862625;28;20316;-68
2022/05/13 09:13:05;;;;;;;9.45;6.28;;;21.10;70.70;;;19.68;78.62;96360.59;4873470;28;20967;-68
2022/05/13 09:15:52;;;;;;;6.47;4.75;;;20.80;71.40;;;19.53;78.31;96363.81;4871583;28;20333;-68
2022/05/13 09:18:40;;;;;;;6.13;4.97;;;20.60;72.30;;;19.43;79.19;96363.56;4863005;28;20488;-67
2022/05/13 09:21:15;;;;;;;7.30;5.57;;;20.70;72.80;;;19.36;80.63;96362.91;4860330;28;20525;-67
2022/05/13 09:23:41;;;;;;;7.70;5.40;;;20.60;72.70;;;19.26;80.04;96368.06;4831001;28;20492;-68
2022/05/13 09:26:13;;;;;;;6.80;4.93;;;20.50;72.80;;;19.17;80.43;96369.47;4844715;28;20220;-68
2022/05/13 09:29:11;;;;;;;8.88;5.22;;;20.30;73.70;;;19.06;82.01;96362.31;4851322;28;20210;-69
2022/05/13 09:32:02;;;;;;;6.72;4.57;;;20.20;74.40;;;18.91;82.46;96366.28;4858260;28;20427;-68
2022/05/13 09:35:13;;;;;;;6.60;5.07;;;20.10;74.30;;;18.79;83.21;96372.69;4828857;28;20476;-69
2022/05/13 09:37:41;;;;;;;7.63;4.50;;;20.00;74.70;;;18.65;81.30;96374.78;4834755;28;20423;-68
2022/05/13 09:40:24;;;;;;;4.97;4.47;;;19.80;74.10;;;18.57;82.74;96367.13;4849000;28;20413;-72
2022/05/13 09:42:53;;;;;;;6.15;4.25;;;19.70;74.70;;;18.49;81.82;96372.78;4855431;28;20788;-72
2022/05/13 09:45:28;;;;;;;9.38;4.78;;;19.60;75.30;;;18.43;83.68;96353.22;4835418;28;20362;-72
2022/05/13 09:48:06;;;;;;;5.38;4.75;;;19.70;75.80;;;18.40;84.26;96352.88;4851334;28;20349;-71
2022/05/13 09:50:35;;;;;;;7.03;4.65;;;19.70;75.80;;;18.39;84.83;96353.91;4889917;28;20558;-69
2022/05/13 09:53:20;;;;;;;6.25;4.78;;;19.70;76.00;;;18.38;85.43;96353.09;4872587;28;20587;-68
2022/05/13 09:55:46;;;;;;;4.75;4.25;;;19.80;75.30;;;18.36;85.10;96340.03;4886656;28;20547;-69
2022/05/13 09:58:26;;;;;;;6.57;4.13;;;19.80;76.00;;;18.45;85.34;96345.00;4850822;28;20447;-69
2022/05/13 10:01:05;;;;;;;6.15;3.92;;;20.00;75.50;;;18.46;85.91;96349.28;4868077;28;20360;-69
2022/05/13 10:03:36;;;;;;;5.88;4.00;;;19.80;75.80;;;18.46;84.58;96347.41;4890271;28;20369;-70
2022/05/13 10:06:09;;;;;;;;;;;19.90;75.60;;;18.43;85.93;96342.56;4852850;28;20599;-70
2022/05/13 10:08:54;;;;;;;5.95;4.22;;;19.80;75.60;;;18.38;85.69;96338.97;4883275;28;20478;-67
2022/05/13 10:14:29;;;;;;;5.47;3.90;;;19.60;76.50;;;18.33;86.30;96352.97;4859120;28;20361;-66
2022/05/13 10:16:57;;;;;;;7.30;4.15;;;19.70;76.60;;;18.25;84.89;96348.00;4867820;28;20220;-66
2022/05/13 10:19:42;;;;;;;5.40;4.10;;;19.50;76.70;;;18.24;87.11;96349.84;4841938;28;20358;-67
2022/05/13 10:22:30;;;;;;;8.48;4.20;;;19.60;77.20;;;18.25;86.42;96356.78;4856087;28;20301;-67
2022/05/13 10:25:09;;;;;;;5.70;4.43;;;19.60;77.00;;;18.18;87.58;96350.78;4880991;28;20696;-67
2022/05/13 10:27:57;;;;;;;6.47;4.90;;;19.50;77.40;;;18.17;88.70;96359.81;4858565;28;20396;-67
2022/05/13 10:30:49;;;;;;;5.88;4.40;;;19.50;78.10;;;18.14;88.23;96368.25;4853240;28;20314;-67
2022/05/13 10:33:32;;;;;;;6.70;4.38;;;19.50;77.60;;;18.08;87.44;96377.13;4867330;28;20764;-67
2022/05/13 10:36:08;;;;;;;5.43;4.07;;;19.20;77.70;;;18.04;87.12;96376.78;4854869;28;20336;-69
2022/05/13 10:38:56;;;;;;;6.13;4.43;;;19.20;77.90;;;17.99;87.43;96381.19;4864827;28;20366;-67
2022/05/13 10:41:31;;;;;;;8.27;4.78;;;19.20;77.50;;;17.92;86.91;96377.81;4868531;28;20430;-66
2022/05/13 10:44:09;;;;;;;6.28;4.22;;;19.10;78.10;;;17.89;87.89;96378.28;4873877;28;20190;-72
2022/05/13 10:47:09;;;;;;;6.70;4.78;;;19.10;78.30;;;17.84;88.75;96386.94;4876369;28;20451;-71
2022/05/13 10:49:39;;;;;;;7.13;4.77;;;19.00;78.70;;;17.75;87.03;96398.94;4875856;28;20312;-72